Time;durP1;ratioP1;P1;durP2;ratioP2;P2;SDS_P1;SDS_P2;PMS_P1;PMS_P2;Temp;Humidity;BMP_temperature;BMP_pressure;BME280_temperature;BME280_humidity;BME280_pressure;Samples;Min_cycle;Max_cycle;Signal;HPM_P1;HPM_P2
2021/04/23 00:02:21;;;;;;;3.72;2.55;;;307.30;2304.00;;;;;;5035035;28;20033;-70
2021/04/23 00:04:47;;;;;;;5.88;2.60;;;307.20;2304.00;;;;;;5034495;28;20037;-70
2021/04/23 00:07:13;;;;;;;6.03;2.80;;;282.50;2278.40;;;;;;5034629;28;20120;-70
2021/04/23 00:09:39;;;;;;;4.13;2.60;;;282.50;2278.40;;;;;;5034747;28;20034;-70
2021/04/23 00:12:08;;;;;;;6.68;2.88;;;282.50;2278.40;;;;;;5034407;28;20091;-72
2021/04/23 00:14:46;;;;;;;8.05;2.67;;;307.20;2304.00;;;;;;5034850;28;20033;-71
2021/04/23 00:17:13;;;;;;;9.82;2.92;;;307.20;2304.00;;;;;;5034796;28;20031;-69
2021/04/23 00:19:40;;;;;;;7.20;2.88;;;282.50;2278.40;;;;;;5034435;28;20132;-70
2021/04/23 00:22:07;;;;;;;5.43;2.53;;;282.50;2278.40;;;;;;5034673;28;20041;-71
2021/04/23 00:24:34;;;;;;;4.70;2.30;;;282.40;2278.40;;;;;;5034518;28;20025;-72
2021/04/23 00:27:01;;;;;;;4.70;3.03;;;282.40;2278.40;;;;;;5034592;28;20033;-70
2021/04/23 00:29:27;;;;;;;4.63;2.22;;;282.40;2278.40;;;;;;5034798;28;20116;-72
2021/04/23 00:34:39;;;;;;;5.80;3.08;;;282.40;2278.40;;;;;;5036528;28;20064;-71
2021/04/23 00:37:05;;;;;;;4.78;2.90;;;282.40;2278.40;;;;;;5038418;28;20025;-70
2021/04/23 00:39:31;;;;;;;6.18;2.60;;;282.40;2278.40;;;;;;5031468;28;20080;-71
2021/04/23 00:41:57;;;;;;;3.97;2.67;;;282.40;2278.40;;;;;;5040690;28;20035;-72
2021/04/23 00:44:23;;;;;;;5.82;3.00;;;282.50;2278.40;;;;;;5040628;28;20056;-71
2021/04/23 00:46:49;;;;;;;4.28;2.42;;;307.20;2304.00;;;;;;5040317;28;20123;-71
2021/04/23 00:49:15;;;;;;;6.28;3.88;;;307.20;2304.00;;;;;;5040516;28;20041;-71
2021/04/23 00:51:48;;;;;;;6.78;3.42;;;307.30;2304.00;;;;;;5040485;28;20021;-71
2021/04/23 00:54:15;;;;;;;7.63;3.67;;;307.30;2304.00;;;;;;5039722;28;20033;-70
2021/04/23 00:56:41;;;;;;;6.88;3.28;;;307.30;2304.00;;;;;;5039961;28;20030;-72
2021/04/23 00:59:09;;;;;;;6.60;3.53;;;307.20;2304.00;;;;;;5040272;28;20021;-69
2021/04/23 01:01:42;;;;;;;5.15;3.33;;;307.20;2304.00;;;;;;5039487;28;20049;-71
2021/04/23 01:04:14;;;;;;;8.05;3.42;;;307.30;2304.00;;;;;;5040277;28;20033;-72
2021/04/23 01:06:40;;;;;;;6.28;3.22;;;307.20;2304.00;;;;;;5039723;28;20028;-71
2021/04/23 01:09:16;;;;;;;6.55;3.67;;;307.20;2304.00;;;;;;5040167;28;20025;-72
2021/04/23 01:11:42;;;;;;;8.15;3.90;;;307.20;2304.00;;;;;;5040182;28;20028;-71
2021/04/23 01:14:09;;;;;;;6.22;3.28;;;307.20;2304.00;;;;;;5039766;28;20048;-70
2021/04/23 01:16:36;;;;;;;5.60;3.58;;;307.20;2304.00;;;;;;5039767;28;20036;-72
2021/04/23 01:19:02;;;;;;;6.72;3.50;;;307.20;2304.00;;;;;;5039992;28;20022;-70
2021/04/23 01:21:31;;;;;;;7.05;3.58;;;307.20;2304.00;;;;;;5038860;28;20422;-70
2021/04/23 01:23:59;;;;;;;7.33;3.90;;;307.20;2304.00;;;;;;5039610;28;20025;-70
2021/04/23 01:26:34;;;;;;;6.32;3.65;;;307.20;2304.00;;;;;;5039316;28;20330;-69
2021/04/23 01:29:01;;;;;;;6.55;3.40;;;307.30;2304.00;;;;;;5039035;28;20331;-70
2021/04/23 01:31:30;;;;;;;5.32;3.40;;;307.20;2304.00;;;;;;5039502;28;20021;-71
2021/04/23 01:34:04;;;;;;;6.10;3.70;;;307.20;2304.00;;;;;;5039459;28;20033;-72
2021/04/23 01:36:29;;;;;;;7.97;3.70;;;307.20;2304.00;;;;;;5039029;28;20037;-72
2021/04/23 01:38:56;;;;;;;7.20;3.90;;;307.20;2304.00;;;;;;5039598;28;20047;-72
2021/04/23 01:41:22;;;;;;;6.70;3.35;;;307.20;2304.00;;;;;;5039264;28;20083;-71
2021/04/23 01:43:49;;;;;;;5.72;3.33;;;307.20;2304.00;;;;;;5039359;28;20017;-70
2021/04/23 01:46:16;;;;;;;9.07;3.50;;;282.50;2278.40;;;;;;5021598;28;20416;-69
2021/04/23 01:48:42;;;;;;;6.05;3.30;;;282.50;2278.40;;;;;;5038906;28;20025;-71
2021/04/23 01:51:13;;;;;;;5.00;3.10;;;282.40;2278.40;;;;;;5039434;28;20090;-70
2021/04/23 01:53:40;;;;;;;8.38;3.40;;;282.40;2278.40;;;;;;5039121;28;20025;-70
2021/04/23 01:56:07;;;;;;;7.07;3.75;;;282.40;2278.40;;;;;;5038954;28;20057;-73
2021/04/23 01:58:35;;;;;;;7.00;4.07;;;282.40;2278.40;;;;;;5038972;28;20029;-71
2021/04/23 02:01:02;;;;;;;9.95;3.40;;;282.40;2278.40;;;;;;5039227;28;20406;-70
2021/04/23 02:03:28;;;;;;;6.05;3.45;;;282.30;2278.40;;;;;;5038636;28;20100;-74
2021/04/23 02:05:56;;;;;;;8.85;4.18;;;282.20;2278.40;;;;;;5038735;28;20103;-70
2021/04/23 02:08:24;;;;;;;5.95;3.50;;;282.20;2278.40;;;;;;5039085;28;20148;-70
2021/04/23 02:11:18;;;;;;;6.05;3.95;;;282.10;2278.40;;;;;;5038783;28;20032;-72
2021/04/23 02:13:47;;;;;;;8.32;4.32;;;282.10;2278.40;;;;;;5037994;28;20037;-70
2021/04/23 02:16:15;;;;;;;6.90;4.30;;;282.00;2278.40;;;;;;5038062;28;20033;-70
2021/04/23 02:18:42;;;;;;;6.43;4.68;;;281.90;2278.40;;;;;;5038957;28;20032;-71
2021/04/23 02:21:08;;;;;;;7.00;4.15;;;281.90;2278.40;;;;;;5038824;28;20022;-70
2021/04/23 02:23:34;;;;;;;9.60;5.03;;;281.90;2278.40;;;;;;5038238;28;20029;-70
2021/04/23 02:26:00;;;;;;;8.32;4.90;;;281.90;2278.40;;;;;;5038176;28;20032;-72
2021/04/23 02:28:27;;;;;;;6.88;4.40;;;281.90;2278.40;;;;;;5038414;28;20033;-70
2021/04/23 02:31:00;;;;;;;8.88;4.80;;;281.90;2278.40;;;;;;5038342;28;20032;-70
2021/04/23 02:33:27;;;;;;;7.97;5.05;;;281.90;2278.40;;;;;;5038355;28;20026;-70
2021/04/23 02:35:55;;;;;;;6.68;4.35;;;281.90;2278.40;;;;;;5038585;28;20061;-71
2021/04/23 02:38:22;;;;;;;5.00;3.95;;;281.90;2278.40;;;;;;5037673;28;20374;-72
2021/04/23 02:40:48;;;;;;;7.80;4.88;;;281.90;2278.40;;;;;;5038185;28;20455;-71
2021/04/23 02:43:19;;;;;;;9.80;5.30;;;281.90;2278.40;;;;;;5037844;28;20060;-73
2021/04/23 02:45:48;;;;;;;11.23;4.88;;;281.90;2278.40;;;;;;5038113;28;20029;-71
2021/04/23 02:48:14;;;;;;;8.65;4.85;;;281.90;2278.40;;;;;;5038350;28;20029;-72
2021/04/23 02:50:49;;;;;;;11.75;5.55;;;281.80;2278.40;;;;;;5037599;28;20029;-71
2021/04/23 02:53:16;;;;;;;10.27;4.88;;;281.80;2278.40;;;;;;5037414;28;20025;-70
2021/04/23 02:55:43;;;;;;;9.63;5.43;;;281.70;2278.40;;;;;;5037618;28;20387;-72
2021/04/23 02:58:15;;;;;;;8.60;4.32;;;281.70;2278.40;;;;;;5037422;28;20036;-71
2021/04/23 03:00:47;;;;;;;8.38;5.03;;;281.70;2278.40;;;;;;5037836;28;20334;-71
2021/04/23 03:03:13;;;;;;;8.10;5.07;;;281.60;2278.40;;;;;;5037824;28;20029;-71
2021/04/23 03:05:43;;;;;;;7.05;5.07;;;281.60;2278.40;;;;;;5037268;28;20496;-70
2021/04/23 03:08:11;;;;;;;7.82;4.65;;;256.90;2252.80;;;;;;5037688;28;20025;-70
2021/04/23 03:10:50;;;;;;;9.77;4.45;;;256.90;2252.80;;;;;;5037606;28;20486;-71
2021/04/23 03:13:20;;;;;;;7.07;4.60;;;256.80;2252.80;;;;;;5037123;28;20025;-71
2021/04/23 03:15:47;;;;;;;9.57;5.00;;;256.70;2252.80;;;;;;5036359;28;20073;-71
2021/04/23 03:18:19;;;;;;;7.95;5.05;;;256.70;2252.80;;;;;;5036869;28;20025;-72
2021/04/23 03:20:45;;;;;;;6.80;4.80;;;256.70;2252.80;;;;;;5037493;28;20032;-71
2021/04/23 03:23:11;;;;;;;7.97;5.43;;;256.70;2252.80;;;;;;5037713;28;20044;-70
2021/04/23 03:25:38;;;;;;;6.28;4.93;;;256.80;2252.80;;;;;;5037450;28;20033;-71
2021/04/23 03:28:05;;;;;;;8.57;5.95;;;256.80;2252.80;;;;;;5037395;28;20056;-71
2021/04/23 03:30:34;;;;;;;9.23;5.60;;;256.80;2252.80;;;;;;5037277;28;20044;-70
2021/04/23 03:33:01;;;;;;;10.85;5.63;;;256.80;2252.80;;;;;;5037586;28;20028;-72
2021/04/23 03:35:28;;;;;;;10.77;5.30;;;256.80;2252.80;;;;;;5036789;28;20049;-70
2021/04/23 03:37:54;;;;;;;10.38;6.18;;;256.80;2252.80;;;;;;5036457;28;20021;-71
2021/04/23 03:40:26;;;;;;;7.25;5.55;;;256.70;2252.80;;;;;;5037229;28;20032;-71
2021/04/23 03:42:53;;;;;;;9.77;5.03;;;256.70;2252.80;;;;;;5037329;28;20025;-71
2021/04/23 03:45:22;;;;;;;9.13;6.60;;;256.50;2252.80;;;;;;5037511;28;20037;-72
2021/04/23 03:47:49;;;;;;;9.65;6.25;;;256.50;2252.80;;;;;;5036658;28;20021;-70
2021/04/23 03:50:18;;;;;;;8.80;6.43;;;256.40;2252.80;;;;;;5037421;28;20018;-72
2021/04/23 03:52:44;;;;;;;11.38;6.88;;;256.40;2252.80;;;;;;5037456;28;20118;-71
2021/04/23 03:55:16;;;;;;;10.13;5.75;;;256.50;2252.80;;;;;;5036094;28;20068;-73
2021/04/23 03:57:42;;;;;;;8.15;5.30;;;256.50;2252.80;;;;;;5034137;28;20104;-70
2021/04/23 04:00:12;;;;;;;7.93;5.68;;;256.50;2252.80;;;;;;5036763;28;20104;-72
2021/04/23 04:02:39;;;;;;;12.13;5.90;;;256.40;2252.80;;;;;;5036790;28;20021;-71
2021/04/23 04:05:07;;;;;;;9.40;5.50;;;256.30;2252.80;;;;;;5036660;28;20055;-71
2021/04/23 04:07:33;;;;;;;6.95;5.28;;;256.30;2252.80;;;;;;5037066;28;20433;-70
2021/04/23 04:09:59;;;;;;;7.22;5.72;;;256.40;2252.80;;;;;;5040254;28;20414;-71
2021/04/23 04:12:25;;;;;;;9.52;5.80;;;256.40;2252.80;;;;;;5040440;28;20021;-71
2021/04/23 04:14:51;;;;;;;8.30;6.13;;;256.50;2252.80;;;;;;5040845;28;20128;-70
2021/04/23 04:17:17;;;;;;;15.00;6.30;;;256.50;2252.80;;;;;;5039529;28;20029;-70
2021/04/23 04:19:43;;;;;;;7.18;5.13;;;256.50;2252.80;;;;;;5040843;28;20103;-70
2021/04/23 04:22:09;;;;;;;8.07;5.57;;;256.50;2252.80;;;;;;5040216;28;20079;-71
2021/04/23 04:24:35;;;;;;;8.07;5.95;;;256.60;2252.80;;;;;;5040196;28;20430;-71
2021/04/23 04:27:02;;;;;;;9.65;5.60;;;256.60;2252.80;;;;;;5040362;28;20066;-70
2021/04/23 04:29:28;;;;;;;17.52;6.35;;;256.50;2252.80;;;;;;5040615;28;20025;-70
2021/04/23 04:31:53;;;;;;;8.93;5.68;;;256.60;2252.80;;;;;;5040597;28;20032;-71
2021/04/23 04:34:20;;;;;;;9.60;6.28;;;256.60;2252.80;;;;;;5040618;28;20057;-70
2021/04/23 04:36:46;;;;;;;14.15;7.43;;;256.70;2252.80;;;;;;5040216;28;20029;-71
2021/04/23 04:39:12;;;;;;;13.95;6.78;;;256.80;2252.80;;;;;;5040713;28;20072;-68
2021/04/23 04:41:38;;;;;;;12.35;7.15;;;256.80;2252.80;;;;;;5040159;28;20017;-72
2021/04/23 04:44:05;;;;;;;15.13;9.10;;;256.80;2252.80;;;;;;5039947;28;20033;-72
2021/04/23 04:46:30;;;;;;;14.43;7.40;;;256.80;2252.80;;;;;;5040351;28;20029;-72
2021/04/23 04:48:57;;;;;;;10.88;8.27;;;256.80;2252.80;;;;;;5039964;28;20079;-71
2021/04/23 04:51:23;;;;;;;13.88;9.88;;;256.70;2252.80;;;;;;5039983;28;20112;-70
2021/04/23 04:53:49;;;;;;;15.73;10.38;;;256.60;2252.80;;;;;;5040470;28;20056;-71
2021/04/23 04:56:15;;;;;;;21.92;11.65;;;256.60;2252.80;;;;;;5040343;28;20065;-71
2021/04/23 04:58:42;;;;;;;19.27;12.40;;;256.50;2252.80;;;;;;5040142;28;20025;-70
2021/04/23 05:01:11;;;;;;;22.38;15.57;;;256.50;2252.80;;;;;;5040327;28;20047;-72
2021/04/23 05:03:37;;;;;;;;;;;256.50;2252.80;;;;;;5040407;28;20402;-70
2021/04/23 05:06:04;;;;;;;20.08;13.77;;;256.40;2252.80;;;;;;5039747;28;19905;-71
2021/04/23 05:08:30;;;;;;;21.67;14.90;;;256.30;2252.80;;;;;;5039588;28;20037;-73
2021/04/23 05:10:57;;;;;;;23.50;15.15;;;256.40;2252.80;;;;;;5039509;28;20029;-72
2021/04/23 05:13:23;;;;;;;22.58;14.85;;;256.40;2252.80;;;;;;5039654;28;20052;-72
2021/04/23 05:15:49;;;;;;;27.90;17.92;;;256.40;2252.80;;;;;;5039684;28;20423;-73
2021/04/23 05:18:15;;;;;;;26.15;16.95;;;256.50;2252.80;;;;;;5039465;28;20433;-71
2021/04/23 05:20:41;;;;;;;26.83;17.67;;;256.40;2252.80;;;;;;5038991;28;20103;-70
2021/04/23 05:23:07;;;;;;;25.70;16.52;;;256.40;2252.80;;;;;;5040025;28;20029;-71
2021/04/23 05:25:35;;;;;;;26.10;16.42;;;256.50;2252.80;;;;;;5037770;28;20185;-70
2021/04/23 05:28:01;;;;;;;27.45;17.73;;;256.40;2252.80;;;;;;5037649;28;20017;-71
2021/04/23 05:30:30;;;;;;;26.20;18.60;;;256.40;2252.80;;;;;;5038590;28;20325;-71
2021/04/23 05:32:58;;;;;;;26.88;19.25;;;256.40;2252.80;;;;;;5038112;28;20029;-72
2021/04/23 05:35:24;;;;;;;25.10;17.63;;;256.40;2252.80;;;;;;5038973;28;20049;-71
2021/04/23 05:37:51;;;;;;;27.63;17.20;;;256.40;2252.80;;;;;;5039151;28;20132;-71
2021/04/23 05:40:21;;;;;;;29.00;18.58;;;256.40;2252.80;;;;;;5038735;28;20025;-70
2021/04/23 05:42:47;;;;;;;27.77;18.58;;;256.40;2252.80;;;;;;5039594;28;20330;-69
2021/04/23 05:45:14;;;;;;;31.35;18.85;;;256.50;2252.80;;;;;;5039227;28;20029;-70
2021/04/23 05:47:40;;;;;;;28.65;18.17;;;256.50;2252.80;;;;;;5038962;28;20026;-69
2021/04/23 05:50:09;;;;;;;32.20;19.58;;;256.50;2252.80;;;;;;5039408;28;20025;-69
2021/04/23 05:52:34;;;;;;;31.33;19.65;;;256.50;2252.80;;;;;;5039126;28;20423;-72
2021/04/23 05:55:00;;;;;;;33.03;20.50;;;256.50;2252.80;;;;;;5038460;28;20106;-70
2021/04/23 05:57:26;;;;;;;31.95;19.65;;;256.60;2252.80;;;;;;5038749;28;20548;-71
2021/04/23 05:59:52;;;;;;;28.38;19.70;;;256.60;2252.80;;;;;;5038712;28;20057;-70
2021/04/23 06:02:18;;;;;;;30.45;19.58;;;256.60;2252.80;;;;;;5038938;28;20108;-69
2021/04/23 06:04:44;;;;;;;34.30;21.70;;;256.60;2252.80;;;;;;5038906;28;20351;-69
2021/04/23 06:07:10;;;;;;;42.58;26.42;;;256.50;2252.80;;;;;;5038820;28;20033;-69
2021/04/23 06:09:36;;;;;;;33.88;21.50;;;256.60;2252.80;;;;;;5038864;28;20076;-70
2021/04/23 06:12:02;;;;;;;33.42;21.30;;;256.70;2252.80;;;;;;5039026;28;20060;-70
2021/04/23 06:14:28;;;;;;;33.75;22.42;;;256.80;2252.80;;;;;;5038635;28;20018;-70
2021/04/23 06:16:54;;;;;;;37.03;21.40;;;256.80;2252.80;;;;;;5038928;28;20033;-71
2021/04/23 06:19:21;;;;;;;36.85;22.15;;;256.80;2252.80;;;;;;5038501;28;20048;-70
2021/04/23 06:21:47;;;;;;;35.63;23.08;;;256.80;2252.80;;;;;;5038283;28;20132;-70
2021/04/23 06:24:13;;;;;;;37.08;23.02;;;256.90;2252.80;;;;;;5038564;28;20116;-70
2021/04/23 06:26:39;;;;;;;36.65;23.15;;;256.80;2252.80;;;;;;5038654;28;20032;-70
2021/04/23 06:29:06;;;;;;;30.38;20.83;;;256.80;2252.80;;;;;;5038468;28;20318;-67
2021/04/23 06:31:32;;;;;;;32.58;22.08;;;256.80;2252.80;;;;;;5037382;28;20021;-70
2021/04/23 06:33:58;;;;;;;28.40;17.48;;;256.70;2252.80;;;;;;5038378;28;20054;-69
2021/04/23 06:36:24;;;;;;;30.27;19.95;;;256.50;2252.80;;;;;;5038280;28;20384;-71
2021/04/23 06:38:50;;;;;;;29.95;19.65;;;256.50;2252.80;;;;;;5038538;28;20036;-72
2021/04/23 06:41:16;;;;;;;34.40;18.85;;;256.40;2252.80;;;;;;5038187;28;20026;-70
2021/04/23 06:43:46;;;;;;;26.38;17.55;;;256.40;2252.80;;;;;;5037270;28;20021;-70
2021/04/23 06:46:13;;;;;;;28.48;17.70;;;256.40;2252.80;;;;;;5038171;28;20382;-70
2021/04/23 06:48:38;;;;;;;27.50;16.60;;;256.40;2252.80;;;;;;5037772;28;20025;-70
2021/04/23 06:51:05;;;;;;;28.17;18.38;;;256.30;2252.80;;;;;;5037396;28;20445;-72
2021/04/23 06:53:32;;;;;;;28.80;18.10;;;256.50;2252.80;;;;;;5037969;28;20029;-69
2021/04/23 06:56:00;;;;;;;26.25;16.63;;;256.60;2252.80;;;;;;5038126;28;20353;-69
2021/04/23 06:58:26;;;;;;;27.50;17.30;;;256.60;2252.80;;;;;;5037349;28;20040;-68
2021/04/23 07:00:52;;;;;;;25.33;17.17;;;256.70;2252.80;;;;;;5038119;28;20026;-69
2021/04/23 07:03:17;;;;;;;31.65;19.10;;;256.80;2252.80;;;;;;5037523;28;20029;-72
2021/04/23 07:05:45;;;;;;;21.75;15.13;;;256.80;2252.80;;;;;;5037734;28;20036;-70
2021/04/23 07:08:12;;;;;;;24.27;16.90;;;256.80;2252.80;;;;;;5037754;28;20029;-70
2021/04/23 07:10:38;;;;;;;22.30;14.35;;;256.90;2252.80;;;;;;5037157;28;20022;-69
2021/04/23 07:13:04;;;;;;;25.08;16.23;;;281.60;2278.40;;;;;;5037955;28;20030;-70
2021/04/23 07:15:32;;;;;;;26.08;14.07;;;281.60;2278.40;;;;;;5037561;28;20033;-69
2021/04/23 07:18:01;;;;;;;21.08;15.27;;;281.60;2278.40;;;;;;5036781;28;20026;-70
2021/04/23 07:20:27;;;;;;;31.35;14.65;;;281.60;2278.40;;;;;;5035961;28;20021;-69
2021/04/23 07:22:53;;;;;;;20.70;13.68;;;281.80;2278.40;;;;;;5036624;28;20025;-70
2021/04/23 07:25:20;;;;;;;26.98;15.82;;;281.90;2278.40;;;;;;5037043;28;20021;-72
2021/04/23 07:27:46;;;;;;;21.80;13.68;;;282.00;2278.40;;;;;;5037054;28;20033;-70
2021/04/23 07:30:28;;;;;;;20.15;13.60;;;282.00;2278.40;;;;;;5037665;28;20028;-69
2021/04/23 07:32:54;;;;;;;18.02;11.85;;;282.00;2278.40;;;;;;5036855;28;20056;-70
2021/04/23 07:35:21;;;;;;;20.52;11.23;;;282.00;2278.40;;;;;;5035992;28;20049;-72
2021/04/23 07:37:47;;;;;;;20.23;12.55;;;282.00;2278.40;;;;;;5035815;28;20022;-71
2021/04/23 07:40:15;;;;;;;20.70;12.45;;;282.10;2278.40;;;;;;5035806;28;20457;-71
2021/04/23 07:42:41;;;;;;;21.60;12.85;;;282.30;2278.40;;;;;;5035374;28;20017;-71
2021/04/23 07:45:09;;;;;;;19.60;12.85;;;282.30;2278.40;;;;;;5036037;28;20033;-69
2021/04/23 07:47:36;;;;;;;21.20;13.07;;;282.30;2278.40;;;;;;5035796;28;20022;-70
2021/04/23 07:50:04;;;;;;;20.58;12.60;;;282.40;2278.40;;;;;;5035475;28;20021;-69
2021/04/23 07:52:30;;;;;;;21.17;13.67;;;282.50;2278.40;;;;;;5036891;28;20025;-69
2021/04/23 07:54:57;;;;;;;22.02;13.68;;;307.30;2304.00;;;;;;5037296;28;20300;-69
2021/04/23 07:57:24;;;;;;;21.25;13.40;;;307.40;2304.00;;;;;;5037135;28;20025;-69
2021/04/23 07:59:50;;;;;;;20.13;12.57;;;307.50;2304.00;;;;;;5036766;28;20291;-69
2021/04/23 08:02:16;;;;;;;19.67;13.43;;;307.50;2304.00;;;;;;5036441;28;20094;-69
2021/04/23 08:04:42;;;;;;;25.08;14.32;;;307.50;2304.00;;;;;;5036545;28;20423;-70
2021/04/23 08:07:08;;;;;;;17.17;11.82;;;307.70;2304.00;;;;;;5037042;28;20021;-70
2021/04/23 08:09:36;;;;;;;19.95;13.50;;;307.70;2304.00;;;;;;5037255;28;20048;-69
2021/04/23 08:12:02;;;;;;;21.55;13.00;;;307.70;2304.00;;;;;;5037248;28;20112;-69
2021/04/23 08:14:28;;;;;;;16.27;10.88;;;307.80;2304.00;;;;;;5036614;28;20338;-69
2021/04/23 08:16:54;;;;;;;17.23;11.45;;;308.00;2150.40;;;;;;5036649;28;20022;-69
2021/04/23 08:19:20;;;;;;;16.83;12.00;;;308.10;2227.20;;;;;;5036882;28;20032;-71
2021/04/23 08:21:46;;;;;;;18.02;10.68;;;333.10;2150.40;;;;;;5036617;28;20053;-69
2021/04/23 08:24:12;;;;;;;17.15;9.43;;;333.30;2073.60;;;;;;5036825;28;20021;-69
2021/04/23 08:26:40;;;;;;;13.93;8.45;;;333.30;1996.80;;;;;;5036862;28;20029;-69
2021/04/23 08:29:06;;;;;;;14.13;8.90;;;333.40;1920.00;;;;;;5036522;28;20167;-72
2021/04/23 08:31:32;;;;;;;16.13;10.30;;;333.20;1971.20;;;;;;5037086;28;20104;-69
2021/04/23 08:33:58;;;;;;;17.73;10.63;;;333.40;2022.40;;;;;;5036170;28;20134;-69
2021/04/23 08:36:24;;;;;;;20.45;12.52;;;333.60;1945.60;;;;;;5036167;28;20457;-70
2021/04/23 08:38:50;;;;;;;15.25;7.93;;;358.40;1945.60;;;;;;5036443;28;20053;-71
2021/04/23 08:41:15;;;;;;;14.30;7.30;;;358.50;1868.80;;;;;;5036344;28;20370;-70
2021/04/23 08:43:41;;;;;;;16.08;8.27;;;358.50;1792.00;;;;;;5036678;28;20032;-69
2021/04/23 08:46:07;;;;;;;14.40;7.20;;;333.70;1740.80;;;;;;5036930;28;20118;-69
2021/04/23 08:48:33;;;;;;;11.55;7.38;;;333.60;1715.20;;;;;;5036680;28;20033;-70
2021/04/23 08:51:00;;;;;;;12.90;7.18;;;358.40;1740.80;;;;;;5036585;28;20029;-69
2021/04/23 08:53:27;;;;;;;15.95;8.18;;;358.50;1689.60;;;;;;5036352;28;20049;-69
2021/04/23 08:55:57;;;;;;;13.60;8.60;;;358.60;1715.20;;;;;;5039493;28;20107;-69
2021/04/23 08:58:24;;;;;;;14.10;8.18;;;358.70;1715.20;;;;;;5040049;28;20022;-70
2021/04/23 09:00:50;;;;;;;14.70;8.45;;;358.60;1894.40;;;;;;5040370;28;20416;-69
2021/04/23 09:03:19;;;;;;;13.82;8.23;;;333.70;1766.40;;;;;;5039505;28;20115;-69
2021/04/23 09:06:07;;;;;;;13.93;8.00;;;333.50;1817.60;;;;;;5040320;28;20025;-70
2021/04/23 09:08:34;;;;;;;15.88;8.32;;;333.30;1894.40;;;;;;5039271;28;20426;-72
2021/04/23 09:11:15;;;;;;;15.05;9.65;;;333.30;1894.40;;;;;;5037519;28;20410;-69
2021/04/23 09:13:51;;;;;;;15.18;9.50;;;333.30;1817.60;;;;;;5039047;28;20414;-69
2021/04/23 09:16:26;;;;;;;13.95;7.75;;;333.10;1843.20;;;;;;5038691;28;20116;-69
2021/04/23 09:19:12;;;;;;;16.02;9.85;;;333.40;1868.80;;;;;;5038397;28;20500;-69
2021/04/23 09:21:59;;;;;;;21.25;9.50;;;333.30;1817.60;;;;;;5038311;28;20026;-68
2021/04/23 09:24:30;;;;;;;17.02;9.63;;;333.40;1766.40;;;;;;5039370;28;20025;-69
2021/04/23 09:26:57;;;;;;;14.98;7.72;;;333.60;1792.00;;;;;;5038857;28;20414;-69
2021/04/23 09:29:32;;;;;;;16.38;8.40;;;333.50;1766.40;;;;;;5039225;28;20036;-69
2021/04/23 09:32:31;;;;;;;13.77;7.68;;;333.60;1792.00;;;;;;5039138;28;20053;-70
2021/04/23 09:35:04;;;;;;;15.77;6.85;;;333.60;1689.60;;;;;;4958843;29;20122;-69
2021/04/23 09:37:39;;;;;;;13.88;7.88;;;358.40;1664.00;;;;;;4958516;29;20098;-70
2021/04/23 09:40:33;;;;;;;10.27;5.32;;;358.50;1715.20;;;;;;4958929;29;20046;-71
2021/04/23 09:43:04;;;;;;;12.50;6.60;;;333.60;1740.80;;;;;;4957492;29;20085;-71
2021/04/23 09:45:34;;;;;;;11.52;6.45;;;333.70;1689.60;;;;;;4958639;29;20047;-71
2021/04/23 09:48:00;;;;;;;10.95;6.30;;;333.60;1612.80;;;;;;4958765;29;20090;-70
2021/04/23 09:50:36;;;;;;;11.50;6.20;;;333.70;1612.80;;;;;;4959063;29;20031;-70
2021/04/23 09:53:02;;;;;;;10.63;6.00;;;358.50;1715.20;;;;;;4958766;29;20071;-69
2021/04/23 09:55:31;;;;;;;11.45;6.65;;;358.50;1612.80;;;;;;4958848;29;20038;-70
2021/04/23 09:58:02;;;;;;;15.65;8.32;;;358.40;1612.80;;;;;;4958908;29;20054;-70
2021/04/23 10:00:33;;;;;;;11.52;6.85;;;358.40;1638.40;;;;;;4958596;29;20360;-71
2021/04/23 10:03:01;;;;;;;12.35;6.45;;;358.50;1740.80;;;;;;4958571;29;20062;-70
2021/04/23 10:05:38;;;;;;;16.08;7.78;;;358.40;1638.40;;;;;;4958180;28;20049;-71
2021/04/23 10:08:24;;;;;;;13.57;6.72;;;358.70;1612.80;;;;;;4958738;29;20031;-69
2021/04/23 10:10:58;;;;;;;12.40;6.72;;;358.50;1587.20;;;;;;4984606;28;20037;-69
2021/04/23 10:13:32;;;;;;;13.45;6.50;;;358.90;1561.60;;;;;;5038684;28;20041;-71
2021/04/23 10:15:58;;;;;;;10.68;6.30;;;358.80;1510.40;;;;;;5038940;28;20029;-69
2021/04/23 10:18:25;;;;;;;10.68;5.95;;;358.80;1510.40;;;;;;5038664;28;20017;-69
2021/04/23 10:20:56;;;;;;;9.85;6.30;;;359.00;1536.00;;;;;;5036680;28;20026;-70
2021/04/23 10:23:24;;;;;;;14.15;6.43;;;358.90;1510.40;;;;;;5036720;28;20026;-69
2021/04/23 10:25:52;;;;;;;8.85;4.70;;;359.00;1561.60;;;;;;5038000;28;20025;-69
2021/04/23 10:28:21;;;;;;;10.05;5.13;;;358.90;1459.20;;;;;;5034708;28;20036;-72
2021/04/23 10:30:50;;;;;;;9.80;5.57;;;358.80;1536.00;;;;;;5033983;28;20171;-72
2021/04/23 10:33:22;;;;;;;13.07;6.03;;;358.80;1561.60;;;;;;5035338;28;20029;-69
2021/04/23 10:35:51;;;;;;;12.23;7.18;;;358.90;1536.00;;;;;;5035031;28;20059;-72
2021/04/23 10:38:26;;;;;;;10.65;6.70;;;358.80;1510.40;;;;;;5036426;28;20080;-71
2021/04/23 10:40:57;;;;;;;13.07;6.28;;;358.60;1536.00;;;;;;5034069;28;20033;-70
2021/04/23 10:43:24;;;;;;;13.48;7.47;;;358.90;1536.00;;;;;;5035023;28;20021;-69
2021/04/23 10:45:59;;;;;;;11.55;7.03;;;359.10;1587.20;;;;;;5035903;28;20079;-70
2021/04/23 10:48:28;;;;;;;13.80;7.07;;;359.30;1561.60;;;;;;5035144;28;20103;-70
2021/04/23 10:50:55;;;;;;;;;;;359.30;1484.80;;;;;;5036133;28;20075;-72
2021/04/23 10:53:27;;;;;;;10.90;5.90;;;359.10;1561.60;;;;;;5035974;28;19905;-69
2021/04/23 10:55:54;;;;;;;12.80;6.78;;;384.00;1536.00;;;;;;5037696;28;20033;-70
2021/04/23 10:58:28;;;;;;;13.00;6.60;;;384.10;1484.80;;;;;;5035824;28;20421;-72
2021/04/23 11:00:59;;;;;;;8.57;5.15;;;384.40;1459.20;;;;;;5033938;28;20025;-72
2021/04/23 11:03:34;;;;;;;11.57;5.72;;;384.40;1484.80;;;;;;5035463;28;20436;-70
2021/04/23 11:06:13;;;;;;;9.95;5.18;;;384.10;1459.20;;;;;;5034809;28;20033;-71
2021/04/23 11:08:59;;;;;;;11.15;5.68;;;384.00;1459.20;;;;;;5034049;28;20021;-71
2021/04/23 11:11:31;;;;;;;12.75;5.65;;;384.10;1561.60;;;;;;5021595;28;20091;-71
2021/04/23 11:14:29;;;;;;;11.65;6.25;;;384.30;1536.00;;;;;;5036321;28;20025;-70
2021/04/23 11:17:18;;;;;;;11.75;6.22;;;384.70;1510.40;;;;;;5033001;28;20064;-71
2021/04/23 11:19:51;;;;;;;13.32;6.38;;;384.80;1408.00;;;;;;5034694;28;20025;-71
2021/04/23 11:22:20;;;;;;;11.60;6.20;;;384.70;1433.60;;;;;;5033913;28;20037;-70
2021/04/23 11:25:18;;;;;;;12.02;6.45;;;384.80;1408.00;;;;;;5036160;28;20052;-71
2021/04/23 11:28:00;;;;;;;9.48;4.93;;;409.80;1459.20;;;;;;5034923;28;20017;-72
2021/04/23 11:30:26;;;;;;;10.23;5.80;;;409.70;1408.00;;;;;;5035241;28;20080;-71
2021/04/23 11:32:53;;;;;;;15.60;6.72;;;409.70;1459.20;;;;;;5037409;28;20049;-69
2021/04/23 11:35:24;;;;;;;13.68;6.10;;;409.90;1459.20;;;;;;5036455;28;20057;-73
2021/04/23 11:37:53;;;;;;;12.95;6.70;;;409.70;1561.60;;;;;;5038057;28;20769;-70
2021/04/23 11:40:25;;;;;;;11.25;5.90;;;384.90;1510.40;;;;;;5049943;28;20056;-71
2021/04/23 11:42:54;;;;;;;13.45;6.60;;;410.10;1459.20;;;;;;5036282;28;20025;-71
2021/04/23 11:45:22;;;;;;;13.60;6.20;;;410.10;1510.40;;;;;;5035515;28;20135;-71
2021/04/23 11:47:50;;;;;;;15.70;6.30;;;410.40;1433.60;;;;;;5037610;28;20333;-71
2021/04/23 11:50:25;;;;;;;13.38;6.40;;;435.60;1382.40;;;;;;5038496;28;20116;-69
2021/04/23 11:52:53;;;;;;;9.38;5.40;;;435.60;1356.80;;;;;;5043966;28;20103;-71
2021/04/23 11:55:27;;;;;;;12.68;6.00;;;410.10;1510.40;;;;;;5035858;28;20354;-71
2021/04/23 11:58:04;;;;;;;11.73;5.78;;;410.40;1433.60;;;;;;5052575;28;20028;-69
2021/04/23 12:00:31;;;;;;;14.23;6.55;;;435.20;1382.40;;;;;;5056648;28;20345;-72
2021/04/23 12:03:04;;;;;;;13.15;6.60;;;435.30;1356.80;;;;;;5056303;28;20311;-71
2021/04/23 12:05:40;;;;;;;14.02;6.30;;;410.50;1382.40;;;;;;5054710;28;20082;-70
2021/04/23 12:08:14;;;;;;;14.38;6.68;;;435.20;1382.40;;;;;;5036425;28;20026;-71
2021/04/23 12:10:43;;;;;;;12.45;6.82;;;435.50;1356.80;;;;;;5035927;28;20029;-71
2021/04/23 12:13:22;;;;;;;14.65;6.72;;;436.00;1305.60;;;;;;5035648;28;20021;-69
2021/04/23 12:15:54;;;;;;;10.45;6.88;;;410.40;1408.00;;;;;;5036883;28;20079;-71
2021/04/23 12:18:20;;;;;;;12.32;7.32;;;436.00;1356.80;;;;;;5036092;28;20087;-71
2021/04/23 12:20:51;;;;;;;15.00;6.97;;;435.20;1382.40;;;;;;5036539;28;20033;-71